createdAt,value
2023-02-27T00:01:44.412Z,5.70
2023-02-27T00:04:12.733Z,6.93
2023-02-27T00:06:40.724Z,7.22
2023-02-27T00:09:09.076Z,8.10
2023-02-27T00:11:37.113Z,7.93
2023-02-27T00:14:05.531Z,7.80
2023-02-27T00:16:33.433Z,6.55
2023-02-27T00:19:01.705Z,7.32
2023-02-27T00:21:29.605Z,7.03
2023-02-27T00:24:14.326Z,6.28
2023-02-27T00:26:42.258Z,5.55
2023-02-27T00:29:10.882Z,5.25
2023-02-27T00:31:38.882Z,5.05
2023-02-27T00:34:07.152Z,4.72
2023-02-27T00:36:35.062Z,4.70
2023-02-27T00:39:12.072Z,5.18
2023-02-27T00:41:39.945Z,4.65
2023-02-27T00:47:53.907Z,4.13
2023-02-27T00:50:21.937Z,4.22
2023-02-27T00:52:50.193Z,4.13
2023-02-27T00:55:18.230Z,4.10
2023-02-27T00:57:46.431Z,4.70
2023-02-27T01:00:14.786Z,3.90
2023-02-27T01:02:43.046Z,4.05
2023-02-27T01:05:11.127Z,4.15
2023-02-27T01:07:39.427Z,4.65
2023-02-27T01:10:08.852Z,4.13
2023-02-27T01:12:37.256Z,4.18
2023-02-27T01:15:06.411Z,4.20
2023-02-27T01:17:34.924Z,4.10
2023-02-27T01:20:03.131Z,4.30
2023-02-27T01:22:31.318Z,4.18
2023-02-27T01:24:59.712Z,4.28
2023-02-27T01:27:28.084Z,4.32
2023-02-27T01:29:56.178Z,4.13
2023-02-27T01:32:37.644Z,4.88
2023-02-27T01:35:06.260Z,4.50
2023-02-27T01:37:52.916Z,4.25
2023-02-27T01:40:40.799Z,3.90
2023-02-27T01:43:20.561Z,4.10
2023-02-27T01:45:49.703Z,4.60
2023-02-27T01:48:38.764Z,4.20
2023-02-27T01:51:16.997Z,3.90
2023-02-27T01:53:48.382Z,3.67
2023-02-27T01:56:19.609Z,3.97
2023-02-27T01:58:50.118Z,4.78
2023-02-27T02:01:20.048Z,4.10
2023-02-27T02:07:50.285Z,4.68
2023-02-27T02:10:19.684Z,4.65
2023-02-27T02:12:47.667Z,3.88
2023-02-27T02:15:16.131Z,3.63
2023-02-27T02:17:53.745Z,3.70
2023-02-27T02:20:51.374Z,3.22
2023-02-27T02:23:48.152Z,4.00
2023-02-27T02:26:33.781Z,3.28
2023-02-27T02:29:33.139Z,3.60
2023-02-27T02:32:13.888Z,4.30
2023-02-27T02:35:10.807Z,3.60
2023-02-27T02:38:24.438Z,3.47
2023-02-27T02:41:14.401Z,2.85
2023-02-27T02:44:14.596Z,3.60
2023-02-27T02:47:03.664Z,3.38
2023-02-27T02:49:50.417Z,3.30
2023-02-27T02:52:30.036Z,3.28
2023-02-27T02:55:08.350Z,3.10
2023-02-27T02:58:06.815Z,2.53
2023-02-27T03:01:19.681Z,2.85
2023-02-27T03:04:21.076Z,3.08
2023-02-27T03:07:13.694Z,2.72
2023-02-27T03:09:46.324Z,3.13
2023-02-27T03:12:20.026Z,3.08
2023-02-27T03:14:55.058Z,3.72
2023-02-27T03:17:47.409Z,2.97
2023-02-27T03:20:27.474Z,3.15
2023-02-27T03:26:41.382Z,3.08
2023-02-27T03:31:47.596Z,2.72
2023-02-27T03:34:18.622Z,2.92
2023-02-27T03:41:05.685Z,2.80
2023-02-27T03:43:58.445Z,2.97
2023-02-27T03:46:28.504Z,3.30
2023-02-27T03:48:56.853Z,3.35
2023-02-27T03:51:26.093Z,3.35
2023-02-27T03:54:03.201Z,2.85
2023-02-27T03:56:49.478Z,3.00
2023-02-27T03:59:18.131Z,3.40
2023-02-27T04:01:46.385Z,2.90
2023-02-27T04:04:17.268Z,3.00
2023-02-27T04:06:49.769Z,2.90
2023-02-27T04:09:50.466Z,3.03
2023-02-27T04:12:24.108Z,3.17
2023-02-27T04:15:19.407Z,2.70
2023-02-27T04:18:05.212Z,2.95
2023-02-27T04:21:18.741Z,2.58
2023-02-27T04:24:03.606Z,2.95
2023-02-27T04:26:44.813Z,3.03
2023-02-27T04:29:12.597Z,3.20
2023-02-27T04:31:59.205Z,2.47
2023-02-27T04:34:41.318Z,3.13
2023-02-27T04:37:28.437Z,2.47
2023-02-27T04:40:27.377Z,2.90
2023-02-27T04:42:59.207Z,2.88
2023-02-27T04:45:31.031Z,3.30
2023-02-27T04:48:04.706Z,2.65
2023-02-27T04:50:40.070Z,2.70
2023-02-27T04:53:37.721Z,2.28
2023-02-27T04:56:10.767Z,2.47
2023-02-27T04:58:48.330Z,2.38
2023-02-27T05:01:34.334Z,2.90
2023-02-27T05:04:05.041Z,2.30
2023-02-27T05:06:36.694Z,2.13
2023-02-27T05:09:09.113Z,3.13
2023-02-27T05:11:47.824Z,2.60
2023-02-27T05:14:37.573Z,3.20
2023-02-27T05:17:11.500Z,2.72
2023-02-27T05:19:43.395Z,3.05
2023-02-27T05:22:39.631Z,2.85
2023-02-27T05:25:41.239Z,2.75
2023-02-27T05:28:23.603Z,2.47
2023-02-27T05:31:14.596Z,2.58
2023-02-27T05:33:56.954Z,2.70
2023-02-27T05:36:31.671Z,2.42
2023-02-27T05:39:04.540Z,2.72
2023-02-27T05:41:50.457Z,2.40
2023-02-27T05:44:23.218Z,2.78
2023-02-27T05:46:59.851Z,2.55
2023-02-27T05:49:35.373Z,2.63
2023-02-27T05:52:07.640Z,2.65
2023-02-27T05:54:59.356Z,2.30
2023-02-27T05:57:37.283Z,2.55
2023-02-27T06:00:13.699Z,3.22
2023-02-27T06:02:43.755Z,3.10
2023-02-27T06:05:14.298Z,3.25
2023-02-27T06:07:42.496Z,2.75
2023-02-27T06:10:15.725Z,3.10
2023-02-27T06:12:43.898Z,2.92
2023-02-27T06:15:12.790Z,3.00
2023-02-27T06:17:40.985Z,2.67
2023-02-27T06:20:09.718Z,2.60
2023-02-27T06:22:37.838Z,2.80
2023-02-27T06:25:06.357Z,2.70
2023-02-27T06:27:34.631Z,3.13
2023-02-27T06:30:02.543Z,2.80
2023-02-27T06:32:30.734Z,2.90
2023-02-27T06:34:58.621Z,3.13
2023-02-27T06:37:26.857Z,2.47
2023-02-27T06:39:54.781Z,2.83
2023-02-27T06:42:23.088Z,2.88
2023-02-27T06:44:50.997Z,3.00
2023-02-27T06:47:19.357Z,2.83
2023-02-27T06:49:47.432Z,2.30
2023-02-27T06:52:15.852Z,2.72
2023-02-27T06:54:43.707Z,2.65
2023-02-27T06:57:11.968Z,3.30
2023-02-27T06:59:39.857Z,3.03
2023-02-27T07:02:32.630Z,3.00
2023-02-27T07:05:00.842Z,3.00
2023-02-27T07:07:37.942Z,3.10
2023-02-27T07:10:08.517Z,3.05
2023-02-27T07:12:36.750Z,2.83
2023-02-27T07:15:05.708Z,2.38
2023-02-27T07:17:33.922Z,3.42
2023-02-27T07:20:01.812Z,3.03
2023-02-27T07:22:30.065Z,2.95
2023-02-27T07:24:58.021Z,2.72
2023-02-27T07:27:26.192Z,2.80
2023-02-27T07:29:54.116Z,2.72
2023-02-27T07:32:22.347Z,2.72
2023-02-27T07:34:50.553Z,2.72
2023-02-27T07:37:18.905Z,3.10
2023-02-27T07:39:46.917Z,3.20
2023-02-27T07:42:15.109Z,2.67
2023-02-27T07:45:03.373Z,2.70
2023-02-27T07:47:31.739Z,2.65
2023-02-27T07:49:59.659Z,2.90
2023-02-27T07:52:28.021Z,3.10
2023-02-27T07:54:56.131Z,3.20
2023-02-27T07:57:24.367Z,2.40
2023-02-27T07:59:52.490Z,3.38
2023-02-27T08:02:20.688Z,2.42
2023-02-27T08:04:49.065Z,2.97
2023-02-27T08:07:17.401Z,6.35
2023-02-27T08:09:45.424Z,2.85
2023-02-27T08:12:13.606Z,2.83
2023-02-27T08:14:41.463Z,2.10
2023-02-27T08:17:09.736Z,2.95
2023-02-27T08:19:37.623Z,2.70
2023-02-27T08:22:05.821Z,2.97
2023-02-27T08:24:33.719Z,2.72
2023-02-27T08:27:02.044Z,2.10
2023-02-27T08:29:30.117Z,2.25
2023-02-27T08:31:58.954Z,2.47
2023-02-27T08:34:27.097Z,2.83
2023-02-27T08:36:55.360Z,3.30
2023-02-27T08:39:23.234Z,7.18
2023-02-27T08:41:52.420Z,3.47
2023-02-27T08:44:20.697Z,3.22
2023-02-27T08:46:49.180Z,2.95
2023-02-27T08:49:18.209Z,3.13
2023-02-27T08:51:47.262Z,2.95
2023-02-27T08:54:27.631Z,2.53
2023-02-27T08:56:55.944Z,2.47
2023-02-27T08:59:23.816Z,2.15
2023-02-27T09:01:52.049Z,2.40
2023-02-27T09:04:20.036Z,2.95
2023-02-27T09:06:48.540Z,2.83
2023-02-27T09:09:16.521Z,2.53
2023-02-27T09:11:44.729Z,10.60
2023-02-27T09:14:13.032Z,2.17
2023-02-27T09:16:41.274Z,2.50
2023-02-27T09:19:09.224Z,2.55
2023-02-27T09:21:37.468Z,2.75
2023-02-27T09:24:18.750Z,2.72
2023-02-27T09:26:49.889Z,3.03
2023-02-27T09:29:18.515Z,3.10
2023-02-27T09:31:46.942Z,2.38
2023-02-27T09:34:15.638Z,2.08
2023-02-27T09:36:44.156Z,2.75
2023-02-27T09:39:12.110Z,2.90
2023-02-27T09:41:55.139Z,2.30
2023-02-27T09:44:45.676Z,2.50
2023-02-27T09:47:23.590Z,2.45
2023-02-27T09:49:57.894Z,2.75
2023-02-27T09:52:27.920Z,2.60
2023-02-27T09:54:56.113Z,3.13
2023-02-27T09:57:37.803Z,3.03
2023-02-27T10:00:18.373Z,2.78
2023-02-27T10:03:06.476Z,2.60
2023-02-27T10:06:08.463Z,2.47
2023-02-27T10:08:45.841Z,2.78
2023-02-27T10:11:17.499Z,2.40
2023-02-27T10:14:16.628Z,2.22
2023-02-27T10:16:47.689Z,1.42
2023-02-27T10:19:23.913Z,2.40
2023-02-27T10:21:55.985Z,1.20
2023-02-27T10:27:00.728Z,1.65
2023-02-27T10:29:37.100Z,1.75
2023-02-27T10:32:17.222Z,1.85
2023-02-27T10:34:54.340Z,1.85
2023-02-27T10:37:26.395Z,1.75
2023-02-27T10:40:00.011Z,1.52
2023-02-27T10:42:32.618Z,1.90
2023-02-27T10:45:00.775Z,2.33
2023-02-27T10:47:28.939Z,1.92
2023-02-27T10:49:57.351Z,2.40
2023-02-27T10:52:25.227Z,2.40
2023-02-27T10:54:53.628Z,2.20
2023-02-27T10:57:36.626Z,2.10
2023-02-27T11:00:08.118Z,1.23
2023-02-27T11:02:39.737Z,1.52
2023-02-27T11:05:33.487Z,1.20
2023-02-27T11:08:29.296Z,1.58
2023-02-27T11:10:59.874Z,1.92
2023-02-27T11:13:32.033Z,1.60
2023-02-27T11:18:31.396Z,2.00
2023-02-27T11:21:29.856Z,1.67
2023-02-27T11:24:05.941Z,1.52
2023-02-27T11:26:37.339Z,1.27
2023-02-27T11:29:07.872Z,1.30
2023-02-27T11:31:38.147Z,1.80
2023-02-27T11:34:06.520Z,2.13
2023-02-27T11:36:47.119Z,1.40
2023-02-27T11:39:25.688Z,1.77
2023-02-27T11:41:57.663Z,1.33
2023-02-27T11:44:50.274Z,1.00
2023-02-27T11:47:24.277Z,0.47
2023-02-27T11:50:29.468Z,0.90
2023-02-27T11:53:39.500Z,0.70
2023-02-27T11:56:18.811Z,1.00
2023-02-27T11:59:01.136Z,0.90
2023-02-27T12:01:35.709Z,0.85
2023-02-27T12:04:45.260Z,1.60
2023-02-27T12:07:23.194Z,2.17
2023-02-27T12:10:09.864Z,1.45
2023-02-27T12:12:50.429Z,1.30
2023-02-27T12:15:48.669Z,1.08
2023-02-27T12:18:27.028Z,1.42
2023-02-27T12:21:00.416Z,1.35
2023-02-27T12:23:41.639Z,1.48
2023-02-27T12:26:12.687Z,1.73
2023-02-27T12:28:53.932Z,2.00
2023-02-27T12:31:46.032Z,1.42
2023-02-27T12:34:38.833Z,2.15
2023-02-27T12:37:17.212Z,2.25
2023-02-27T12:39:45.544Z,2.40
2023-02-27T12:42:19.496Z,2.42
2023-02-27T12:45:20.807Z,2.42
2023-02-27T12:47:52.292Z,2.70
2023-02-27T12:50:23.489Z,2.88
2023-02-27T12:53:15.787Z,2.23
2023-02-27T12:56:16.347Z,2.92
2023-02-27T12:58:50.550Z,1.83
2023-02-27T13:01:31.806Z,2.13
2023-02-27T13:04:24.680Z,1.40
2023-02-27T13:07:01.211Z,1.50
2023-02-27T13:09:46.990Z,1.00
2023-02-27T13:12:40.862Z,1.20
2023-02-27T13:15:22.028Z,1.13
2023-02-27T13:18:23.666Z,1.00
2023-02-27T13:21:00.707Z,1.13
2023-02-27T13:23:53.605Z,1.52
2023-02-27T13:26:26.989Z,1.50
2023-02-27T13:28:55.886Z,1.48
2023-02-27T13:32:04.575Z,1.55
2023-02-27T13:34:55.704Z,1.80
2023-02-27T13:37:24.072Z,2.30
2023-02-27T13:39:53.706Z,1.80
2023-02-27T13:42:28.084Z,2.03
2023-02-27T13:44:57.757Z,1.80
2023-02-27T13:47:29.285Z,2.08
2023-02-27T13:49:59.818Z,1.88
2023-02-27T13:52:36.634Z,2.53
2023-02-27T13:55:30.668Z,2.70
2023-02-27T13:58:00.893Z,2.63
2023-02-27T14:06:24.363Z,3.15
2023-02-27T14:09:05.000Z,3.63
2023-02-27T14:11:40.934Z,3.40
2023-02-27T14:18:13.856Z,3.63
2023-02-27T14:20:42.511Z,4.50
2023-02-27T14:23:25.267Z,3.35
2023-02-27T14:25:55.663Z,3.70
2023-02-27T14:28:30.247Z,4.70
2023-02-27T14:31:20.430Z,4.00
2023-02-27T14:37:24.964Z,3.72
2023-02-27T14:39:55.273Z,4.25
2023-02-27T14:42:26.476Z,3.67
2023-02-27T14:44:55.177Z,4.10
2023-02-27T14:47:32.083Z,3.60
2023-02-27T14:50:33.304Z,3.70
2023-02-27T14:53:25.884Z,4.57
2023-02-27T14:55:56.397Z,3.80
2023-02-27T14:58:26.093Z,3.70
2023-02-27T15:01:09.115Z,3.25
2023-02-27T15:03:50.169Z,3.15
2023-02-27T15:06:33.995Z,3.50
2023-02-27T15:09:02.796Z,4.00
2023-02-27T15:11:32.601Z,3.42
2023-02-27T15:14:03.891Z,3.63
2023-02-27T15:16:38.829Z,4.50
2023-02-27T15:19:15.090Z,4.28
2023-02-27T15:21:52.066Z,3.20
2023-02-27T15:24:22.199Z,2.63
2023-02-27T15:27:32.722Z,3.85
2023-02-27T15:30:02.605Z,3.08
2023-02-27T15:32:41.689Z,3.63
2023-02-27T15:42:36.074Z,3.05
2023-02-27T15:45:05.443Z,2.83
2023-02-27T15:47:34.888Z,3.10
2023-02-27T15:50:11.673Z,3.17
2023-02-27T15:52:51.824Z,3.28
2023-02-27T15:55:30.858Z,3.50
2023-02-27T15:58:03.478Z,3.28
2023-02-27T16:00:35.379Z,2.47
2023-02-27T16:03:07.063Z,1.88
2023-02-27T16:05:41.716Z,2.53
2023-02-27T16:08:18.444Z,2.38
2023-02-27T16:10:48.365Z,2.50
2023-02-27T16:13:25.402Z,2.50
2023-02-27T16:16:31.970Z,2.38
2023-02-27T16:19:21.482Z,2.65
2023-02-27T16:22:13.926Z,2.83
2023-02-27T16:24:42.807Z,2.78
2023-02-27T16:27:27.471Z,3.00
2023-02-27T16:30:34.662Z,3.05
2023-02-27T16:33:03.386Z,3.50
2023-02-27T16:35:31.639Z,3.20
2023-02-27T16:38:01.507Z,3.88
2023-02-27T16:40:29.572Z,3.38
2023-02-27T16:42:57.944Z,3.50
2023-02-27T16:45:28.162Z,3.58
2023-02-27T16:47:59.618Z,3.58
2023-02-27T16:50:38.818Z,3.50
2023-02-27T16:53:07.754Z,3.75
2023-02-27T16:55:40.333Z,4.00
2023-02-27T16:58:15.600Z,4.10
2023-02-27T17:00:43.987Z,4.07
2023-02-27T17:03:12.269Z,4.43
2023-02-27T17:05:40.400Z,4.40
2023-02-27T17:08:10.431Z,4.65
2023-02-27T17:10:38.392Z,4.32
2023-02-27T17:13:06.837Z,4.78
2023-02-27T17:15:34.901Z,5.05
2023-02-27T17:18:03.454Z,6.22
2023-02-27T17:20:31.497Z,4.97
2023-02-27T17:23:23.690Z,6.32
2023-02-27T17:25:54.319Z,5.70
2023-02-27T17:28:23.615Z,6.18
2023-02-27T17:30:51.691Z,5.40
2023-02-27T17:33:20.059Z,5.18
2023-02-27T17:35:48.067Z,5.25
2023-02-27T17:38:16.379Z,5.35
2023-02-27T17:40:44.332Z,4.95
2023-02-27T17:43:12.747Z,6.13
2023-02-27T17:45:40.715Z,4.93
2023-02-27T17:48:08.960Z,5.97
2023-02-27T17:50:37.240Z,6.05
2023-02-27T17:53:05.726Z,5.43
2023-02-27T17:55:33.915Z,5.80
2023-02-27T17:58:02.225Z,6.15
2023-02-27T18:00:30.239Z,5.85
2023-02-27T18:02:58.742Z,5.63
2023-02-27T18:05:26.729Z,5.25
2023-02-27T18:07:55.810Z,6.10
2023-02-27T18:10:23.970Z,6.28
2023-02-27T18:12:53.443Z,6.25
2023-02-27T18:15:21.388Z,5.85
2023-02-27T18:17:49.884Z,7.05
2023-02-27T18:20:18.150Z,7.05
2023-02-27T18:22:46.406Z,8.27
2023-02-27T18:25:16.618Z,7.28
2023-02-27T18:27:48.034Z,6.45
2023-02-27T18:30:17.296Z,6.45
2023-02-27T18:32:45.721Z,5.93
2023-02-27T18:35:14.218Z,6.20
2023-02-27T18:37:42.845Z,5.90
2023-02-27T18:40:11.688Z,5.65
2023-02-27T18:42:39.961Z,5.78
2023-02-27T18:45:09.324Z,6.22
2023-02-27T18:47:38.092Z,5.88
2023-02-27T18:50:06.857Z,5.90
2023-02-27T18:52:37.233Z,5.72
2023-02-27T18:55:06.112Z,6.50
2023-02-27T18:57:34.696Z,6.47
2023-02-27T19:00:05.170Z,5.70
2023-02-27T19:02:37.192Z,6.15
2023-02-27T19:05:05.613Z,8.07
2023-02-27T19:07:34.560Z,7.28
2023-02-27T19:10:03.396Z,6.20
2023-02-27T19:12:31.770Z,6.63
2023-02-27T19:14:59.887Z,6.32
2023-02-27T19:17:28.412Z,7.47
2023-02-27T19:19:56.450Z,7.53
2023-02-27T19:22:24.842Z,7.57
2023-02-27T19:24:52.753Z,7.53
2023-02-27T19:27:27.237Z,7.47
2023-02-27T19:29:57.942Z,6.80
2023-02-27T19:32:29.297Z,8.07
2023-02-27T19:34:57.377Z,7.85
2023-02-27T19:37:25.919Z,7.65
2023-02-27T19:39:53.910Z,8.18
2023-02-27T19:42:22.595Z,7.90
2023-02-27T19:44:50.699Z,7.78
2023-02-27T19:47:19.435Z,7.82
2023-02-27T19:49:50.770Z,8.57
2023-02-27T19:52:22.262Z,8.43
2023-02-27T19:54:50.337Z,7.80
2023-02-27T19:57:20.431Z,8.52
2023-02-27T19:59:48.422Z,8.65
2023-02-27T20:02:16.864Z,8.48
2023-02-27T20:04:45.598Z,8.32
2023-02-27T20:07:17.953Z,8.43
2023-02-27T20:09:45.940Z,10.85
2023-02-27T20:12:14.486Z,10.75
2023-02-27T20:14:42.430Z,10.30
2023-02-27T20:17:10.828Z,11.00
2023-02-27T20:19:38.752Z,10.93
2023-02-27T20:22:50.620Z,12.32
2023-02-27T20:28:53.562Z,14.02
2023-02-27T20:31:23.670Z,13.15
2023-02-27T20:33:52.850Z,14.30
2023-02-27T20:36:20.892Z,11.93
2023-02-27T20:38:49.207Z,10.68
2023-02-27T20:41:20.134Z,10.18
2023-02-27T20:43:50.228Z,11.25
2023-02-27T20:46:22.292Z,10.40
2023-02-27T20:48:55.248Z,10.80
2023-02-27T20:51:25.030Z,11.35
2023-02-27T20:54:09.299Z,11.45
2023-02-27T20:56:40.277Z,11.45
2023-02-27T20:59:18.699Z,11.55
2023-02-27T21:01:47.537Z,13.23
2023-02-27T21:04:16.385Z,12.98
2023-02-27T21:06:46.591Z,12.75
2023-02-27T21:09:15.304Z,12.75
2023-02-27T21:11:43.199Z,14.13
2023-02-27T21:14:12.223Z,14.35
2023-02-27T21:16:40.336Z,14.15
2023-02-27T21:19:09.647Z,12.15
2023-02-27T21:21:37.636Z,14.10
2023-02-27T21:24:07.005Z,12.48
2023-02-27T21:26:40.895Z,13.15
2023-02-27T21:29:15.713Z,13.32
2023-02-27T21:31:45.610Z,13.15
2023-02-27T21:34:17.907Z,12.27
2023-02-27T21:36:47.015Z,12.95
2023-02-27T21:39:19.012Z,13.75
2023-02-27T21:41:47.189Z,13.35
2023-02-27T21:44:18.503Z,12.70
2023-02-27T21:46:47.011Z,12.10
2023-02-27T21:49:17.815Z,12.18
2023-02-27T21:51:46.969Z,14.43
2023-02-27T21:54:16.709Z,12.40
2023-02-27T21:56:46.437Z,13.00
2023-02-27T21:59:15.820Z,12.68
2023-02-27T22:01:43.850Z,12.15
2023-02-27T22:04:15.139Z,11.98
2023-02-27T22:06:43.775Z,13.07
2023-02-27T22:09:12.111Z,11.13
2023-02-27T22:11:40.051Z,11.68
2023-02-27T22:14:15.434Z,12.18
2023-02-27T22:16:43.666Z,13.07
2023-02-27T22:19:14.233Z,13.73
2023-02-27T22:21:42.151Z,13.23
2023-02-27T22:24:10.336Z,13.05
2023-02-27T22:26:38.451Z,12.80
2023-02-27T22:29:07.296Z,13.75
2023-02-27T22:31:37.924Z,13.30
2023-02-27T22:34:10.214Z,13.23
2023-02-27T22:36:39.533Z,12.32
2023-02-27T22:39:07.937Z,15.07
2023-02-27T22:41:38.478Z,13.57
2023-02-27T22:44:08.182Z,12.32
2023-02-27T22:46:38.904Z,13.13
2023-02-27T22:49:11.329Z,13.07
2023-02-27T22:51:39.522Z,12.73
2023-02-27T22:54:08.969Z,12.02
2023-02-27T22:56:37.046Z,13.05
2023-02-27T22:59:07.333Z,12.63
2023-02-27T23:01:36.513Z,14.73
2023-02-27T23:04:08.187Z,13.45
2023-02-27T23:06:38.355Z,11.93
2023-02-27T23:09:10.529Z,12.20
2023-02-27T23:11:38.518Z,12.80
2023-02-27T23:14:06.824Z,12.30
2023-02-27T23:16:35.154Z,11.95
2023-02-27T23:19:04.422Z,12.18
2023-02-27T23:21:34.974Z,12.23
2023-02-27T23:24:05.578Z,12.02
2023-02-27T23:26:38.608Z,11.85
2023-02-27T23:29:07.382Z,11.27
2023-02-27T23:31:49.634Z,12.40
2023-02-27T23:34:18.032Z,12.48
2023-02-27T23:36:46.074Z,12.55
2023-02-27T23:39:14.410Z,12.40
2023-02-27T23:41:42.358Z,12.38
2023-02-27T23:44:10.591Z,12.10
2023-02-27T23:46:38.605Z,12.23
2023-02-27T23:49:07.126Z,13.05
2023-02-27T23:51:35.499Z,12.95
2023-02-27T23:54:04.114Z,11.18
2023-02-27T23:56:32.036Z,11.57
2023-02-27T23:59:02.871Z,12.32
